sensor_id;sensor_type;location;lat;lon;timestamp;P1;durP1;ratioP1;P2;durP2;ratioP2
19255;SDS011;9762;52.490;13.410;2023-06-10T00:01:53;9.67;;;4.83;;
19255;SDS011;9762;52.490;13.410;2023-06-10T00:04:23;7.60;;;4.53;;
19255;SDS011;9762;52.490;13.410;2023-06-10T00:06:48;8.77;;;4.83;;
19255;SDS011;9762;52.490;13.410;2023-06-10T00:09:14;6.97;;;4.30;;
19255;SDS011;9762;52.490;13.410;2023-06-10T00:11:41;9.87;;;4.53;;
19255;SDS011;9762;52.490;13.410;2023-06-10T00:14:07;8.73;;;4.60;;
19255;SDS011;9762;52.490;13.410;2023-06-10T00:16:33;5.80;;;4.50;;
19255;SDS011;9762;52.490;13.410;2023-06-10T00:18:59;6.17;;;4.13;;
19255;SDS011;9762;52.490;13.410;2023-06-10T00:21:25;8.33;;;4.70;;
19255;SDS011;9762;52.490;13.410;2023-06-10T00:23:55;5.67;;;4.43;;
19255;SDS011;9762;52.490;13.410;2023-06-10T00:26:21;8.27;;;4.93;;
19255;SDS011;9762;52.490;13.410;2023-06-10T00:28:47;9.93;;;4.77;;
19255;SDS011;9762;52.490;13.410;2023-06-10T00:31:13;5.60;;;4.53;;
19255;SDS011;9762;52.490;13.410;2023-06-10T00:33:39;7.57;;;5.00;;
19255;SDS011;9762;52.490;13.410;2023-06-10T00:36:05;10.03;;;4.43;;
19255;SDS011;9762;52.490;13.410;2023-06-10T00:38:30;8.53;;;4.20;;
19255;SDS011;9762;52.490;13.410;2023-06-10T00:40:56;6.63;;;4.03;;
19255;SDS011;9762;52.490;13.410;2023-06-10T00:43:22;5.80;;;4.50;;
19255;SDS011;9762;52.490;13.410;2023-06-10T00:45:48;7.63;;;4.87;;
19255;SDS011;9762;52.490;13.410;2023-06-10T00:48:14;11.63;;;5.10;;
19255;SDS011;9762;52.490;13.410;2023-06-10T00:50:40;9.43;;;5.10;;
19255;SDS011;9762;52.490;13.410;2023-06-10T00:53:06;10.00;;;4.53;;
19255;SDS011;9762;52.490;13.410;2023-06-10T00:55:32;7.77;;;4.17;;
19255;SDS011;9762;52.490;13.410;2023-06-10T00:57:57;5.93;;;4.10;;
19255;SDS011;9762;52.490;13.410;2023-06-10T01:00:24;8.77;;;4.60;;
19255;SDS011;9762;52.490;13.410;2023-06-10T01:02:50;8.17;;;4.80;;
19255;SDS011;9762;52.490;13.410;2023-06-10T01:05:17;12.33;;;4.47;;
19255;SDS011;9762;52.490;13.410;2023-06-10T01:13:03;7.67;;;4.40;;
19255;SDS011;9762;52.490;13.410;2023-06-10T01:15:36;7.97;;;4.40;;
19255;SDS011;9762;52.490;13.410;2023-06-10T01:20:40;9.30;;;4.53;;
19255;SDS011;9762;52.490;13.410;2023-06-10T01:23:08;8.97;;;5.07;;
19255;SDS011;9762;52.490;13.410;2023-06-10T01:25:39;6.43;;;4.70;;
19255;SDS011;9762;52.490;13.410;2023-06-10T01:28:14;8.57;;;4.13;;
19255;SDS011;9762;52.490;13.410;2023-06-10T01:31:01;6.47;;;4.43;;
19255;SDS011;9762;52.490;13.410;2023-06-10T01:33:37;8.57;;;4.37;;
19255;SDS011;9762;52.490;13.410;2023-06-10T01:36:10;8.17;;;4.53;;
19255;SDS011;9762;52.490;13.410;2023-06-10T01:38:39;10.53;;;4.30;;
19255;SDS011;9762;52.490;13.410;2023-06-10T01:41:06;9.37;;;4.37;;
19255;SDS011;9762;52.490;13.410;2023-06-10T01:43:33;7.60;;;4.83;;
19255;SDS011;9762;52.490;13.410;2023-06-10T01:46:00;6.47;;;4.30;;
19255;SDS011;9762;52.490;13.410;2023-06-10T01:48:26;11.07;;;4.57;;
19255;SDS011;9762;52.490;13.410;2023-06-10T01:50:52;8.03;;;4.73;;
19255;SDS011;9762;52.490;13.410;2023-06-10T01:53:18;9.27;;;4.40;;
19255;SDS011;9762;52.490;13.410;2023-06-10T01:55:43;7.97;;;4.60;;
19255;SDS011;9762;52.490;13.410;2023-06-10T01:58:09;10.87;;;4.70;;
19255;SDS011;9762;52.490;13.410;2023-06-10T02:00:35;6.43;;;4.63;;
19255;SDS011;9762;52.490;13.410;2023-06-10T02:03:00;6.70;;;4.80;;
19255;SDS011;9762;52.490;13.410;2023-06-10T02:05:26;11.13;;;4.37;;
19255;SDS011;9762;52.490;13.410;2023-06-10T02:07:52;7.77;;;4.77;;
19255;SDS011;9762;52.490;13.410;2023-06-10T02:10:17;11.63;;;5.30;;
19255;SDS011;9762;52.490;13.410;2023-06-10T02:12:43;10.17;;;5.10;;
19255;SDS011;9762;52.490;13.410;2023-06-10T02:15:08;6.87;;;4.43;;
19255;SDS011;9762;52.490;13.410;2023-06-10T02:17:34;10.13;;;4.77;;
19255;SDS011;9762;52.490;13.410;2023-06-10T02:20:00;6.93;;;4.00;;
19255;SDS011;9762;52.490;13.410;2023-06-10T02:22:31;10.27;;;4.73;;
19255;SDS011;9762;52.490;13.410;2023-06-10T02:24:57;8.87;;;4.77;;
19255;SDS011;9762;52.490;13.410;2023-06-10T02:27:22;8.10;;;4.30;;
19255;SDS011;9762;52.490;13.410;2023-06-10T02:29:48;11.83;;;4.73;;
19255;SDS011;9762;52.490;13.410;2023-06-10T02:32:14;6.87;;;4.77;;
19255;SDS011;9762;52.490;13.410;2023-06-10T02:34:40;7.00;;;4.10;;
19255;SDS011;9762;52.490;13.410;2023-06-10T02:37:07;6.60;;;4.90;;
19255;SDS011;9762;52.490;13.410;2023-06-10T02:39:33;9.33;;;4.93;;
19255;SDS011;9762;52.490;13.410;2023-06-10T02:41:58;4.67;;;4.10;;
19255;SDS011;9762;52.490;13.410;2023-06-10T02:44:24;10.67;;;4.80;;
19255;SDS011;9762;52.490;13.410;2023-06-10T02:46:50;9.37;;;4.50;;
19255;SDS011;9762;52.490;13.410;2023-06-10T02:49:16;8.80;;;4.77;;
19255;SDS011;9762;52.490;13.410;2023-06-10T02:51:41;9.77;;;4.60;;
19255;SDS011;9762;52.490;13.410;2023-06-10T02:54:07;9.67;;;4.80;;
19255;SDS011;9762;52.490;13.410;2023-06-10T02:56:32;8.90;;;5.10;;
19255;SDS011;9762;52.490;13.410;2023-06-10T02:58:58;10.37;;;4.90;;
19255;SDS011;9762;52.490;13.410;2023-06-10T03:01:25;11.33;;;5.53;;
19255;SDS011;9762;52.490;13.410;2023-06-10T03:03:50;10.80;;;5.13;;
19255;SDS011;9762;52.490;13.410;2023-06-10T03:06:17;6.40;;;5.00;;
19255;SDS011;9762;52.490;13.410;2023-06-10T03:08:43;7.03;;;4.53;;
19255;SDS011;9762;52.490;13.410;2023-06-10T03:11:08;7.63;;;5.10;;
19255;SDS011;9762;52.490;13.410;2023-06-10T03:13:35;12.23;;;5.53;;
19255;SDS011;9762;52.490;13.410;2023-06-10T03:16:00;6.77;;;5.10;;
19255;SDS011;9762;52.490;13.410;2023-06-10T03:18:28;13.70;;;5.50;;
19255;SDS011;9762;52.490;13.410;2023-06-10T03:20:54;5.80;;;5.20;;
19255;SDS011;9762;52.490;13.410;2023-06-10T03:23:20;9.57;;;4.50;;
19255;SDS011;9762;52.490;13.410;2023-06-10T03:25:46;8.33;;;5.10;;
19255;SDS011;9762;52.490;13.410;2023-06-10T03:28:12;7.50;;;4.87;;
19255;SDS011;9762;52.490;13.410;2023-06-10T03:30:37;10.13;;;5.20;;
19255;SDS011;9762;52.490;13.410;2023-06-10T03:33:03;11.50;;;5.40;;
19255;SDS011;9762;52.490;13.410;2023-06-10T03:35:32;7.57;;;4.67;;
19255;SDS011;9762;52.490;13.410;2023-06-10T03:37:57;8.67;;;4.90;;
19255;SDS011;9762;52.490;13.410;2023-06-10T03:40:23;8.43;;;5.17;;
19255;SDS011;9762;52.490;13.410;2023-06-10T03:42:49;7.83;;;4.87;;
19255;SDS011;9762;52.490;13.410;2023-06-10T03:45:15;11.10;;;5.47;;
19255;SDS011;9762;52.490;13.410;2023-06-10T03:47:41;16.77;;;5.20;;
19255;SDS011;9762;52.490;13.410;2023-06-10T03:50:08;9.20;;;5.27;;
19255;SDS011;9762;52.490;13.410;2023-06-10T03:52:37;10.97;;;4.90;;
19255;SDS011;9762;52.490;13.410;2023-06-10T03:55:04;10.07;;;5.50;;
19255;SDS011;9762;52.490;13.410;2023-06-10T03:57:30;9.90;;;5.47;;
19255;SDS011;9762;52.490;13.410;2023-06-10T03:59:55;7.93;;;4.97;;
19255;SDS011;9762;52.490;13.410;2023-06-10T04:02:21;9.80;;;4.80;;
19255;SDS011;9762;52.490;13.410;2023-06-10T04:04:47;9.40;;;5.37;;
19255;SDS011;9762;52.490;13.410;2023-06-10T04:07:13;10.00;;;5.27;;
19255;SDS011;9762;52.490;13.410;2023-06-10T04:09:39;7.57;;;4.80;;
19255;SDS011;9762;52.490;13.410;2023-06-10T04:12:05;7.83;;;4.57;;
19255;SDS011;9762;52.490;13.410;2023-06-10T04:14:33;11.60;;;5.07;;
19255;SDS011;9762;52.490;13.410;2023-06-10T04:17:01;8.83;;;4.50;;
19255;SDS011;9762;52.490;13.410;2023-06-10T04:19:27;11.37;;;5.23;;
19255;SDS011;9762;52.490;13.410;2023-06-10T04:21:53;11.70;;;5.27;;
19255;SDS011;9762;52.490;13.410;2023-06-10T04:24:19;7.97;;;5.00;;
19255;SDS011;9762;52.490;13.410;2023-06-10T04:26:44;8.30;;;5.00;;
19255;SDS011;9762;52.490;13.410;2023-06-10T04:29:11;8.90;;;5.27;;
19255;SDS011;9762;52.490;13.410;2023-06-10T04:31:36;12.40;;;5.77;;
19255;SDS011;9762;52.490;13.410;2023-06-10T04:34:02;7.07;;;5.53;;
19255;SDS011;9762;52.490;13.410;2023-06-10T04:36:27;15.03;;;5.13;;
19255;SDS011;9762;52.490;13.410;2023-06-10T04:38:55;8.57;;;5.73;;
19255;SDS011;9762;52.490;13.410;2023-06-10T04:41:20;8.53;;;5.10;;
19255;SDS011;9762;52.490;13.410;2023-06-10T04:43:47;14.10;;;5.37;;
19255;SDS011;9762;52.490;13.410;2023-06-10T04:46:13;14.10;;;5.50;;
19255;SDS011;9762;52.490;13.410;2023-06-10T04:48:38;10.23;;;5.70;;
19255;SDS011;9762;52.490;13.410;2023-06-10T04:51:05;9.63;;;5.60;;
19255;SDS011;9762;52.490;13.410;2023-06-10T04:53:31;10.63;;;5.17;;
19255;SDS011;9762;52.490;13.410;2023-06-10T04:55:56;7.17;;;5.70;;
19255;SDS011;9762;52.490;13.410;2023-06-10T04:58:22;8.03;;;5.90;;
19255;SDS011;9762;52.490;13.410;2023-06-10T05:00:48;7.13;;;5.33;;
19255;SDS011;9762;52.490;13.410;2023-06-10T05:03:14;10.43;;;5.43;;
19255;SDS011;9762;52.490;13.410;2023-06-10T05:05:40;8.43;;;5.33;;
19255;SDS011;9762;52.490;13.410;2023-06-10T05:08:05;8.07;;;5.67;;
19255;SDS011;9762;52.490;13.410;2023-06-10T05:10:31;8.37;;;5.87;;
19255;SDS011;9762;52.490;13.410;2023-06-10T05:12:57;8.90;;;5.40;;
19255;SDS011;9762;52.490;13.410;2023-06-10T05:15:23;10.90;;;5.97;;
19255;SDS011;9762;52.490;13.410;2023-06-10T05:17:49;6.83;;;5.33;;
19255;SDS011;9762;52.490;13.410;2023-06-10T05:20:15;6.93;;;5.50;;
19255;SDS011;9762;52.490;13.410;2023-06-10T05:22:41;14.27;;;5.77;;
19255;SDS011;9762;52.490;13.410;2023-06-10T05:25:06;6.03;;;5.33;;
19255;SDS011;9762;52.490;13.410;2023-06-10T05:27:32;6.33;;;5.40;;
19255;SDS011;9762;52.490;13.410;2023-06-10T05:29:58;9.73;;;5.67;;
19255;SDS011;9762;52.490;13.410;2023-06-10T05:32:24;8.20;;;5.13;;
19255;SDS011;9762;52.490;13.410;2023-06-10T05:34:50;11.77;;;5.80;;
19255;SDS011;9762;52.490;13.410;2023-06-10T05:37:15;10.47;;;5.77;;
19255;SDS011;9762;52.490;13.410;2023-06-10T05:39:41;14.87;;;5.70;;
19255;SDS011;9762;52.490;13.410;2023-06-10T05:42:06;9.20;;;5.53;;
19255;SDS011;9762;52.490;13.410;2023-06-10T05:44:33;8.60;;;6.00;;
19255;SDS011;9762;52.490;13.410;2023-06-10T05:46:59;8.93;;;6.03;;
19255;SDS011;9762;52.490;13.410;2023-06-10T05:49:24;10.43;;;6.03;;
19255;SDS011;9762;52.490;13.410;2023-06-10T05:51:50;7.00;;;5.63;;
19255;SDS011;9762;52.490;13.410;2023-06-10T05:54:17;9.07;;;5.70;;
19255;SDS011;9762;52.490;13.410;2023-06-10T05:56:43;10.67;;;6.00;;
19255;SDS011;9762;52.490;13.410;2023-06-10T05:59:09;9.97;;;5.70;;
19255;SDS011;9762;52.490;13.410;2023-06-10T06:01:35;10.17;;;5.53;;
19255;SDS011;9762;52.490;13.410;2023-06-10T06:04:00;9.03;;;5.63;;
19255;SDS011;9762;52.490;13.410;2023-06-10T06:06:26;8.43;;;5.70;;
19255;SDS011;9762;52.490;13.410;2023-06-10T06:08:52;10.33;;;6.17;;
19255;SDS011;9762;52.490;13.410;2023-06-10T06:11:17;11.87;;;6.47;;
19255;SDS011;9762;52.490;13.410;2023-06-10T06:13:43;12.83;;;6.47;;
19255;SDS011;9762;52.490;13.410;2023-06-10T06:16:08;12.80;;;5.90;;
19255;SDS011;9762;52.490;13.410;2023-06-10T06:18:34;15.37;;;6.00;;
19255;SDS011;9762;52.490;13.410;2023-06-10T06:21:00;12.60;;;6.23;;
19255;SDS011;9762;52.490;13.410;2023-06-10T06:23:25;9.77;;;5.90;;
19255;SDS011;9762;52.490;13.410;2023-06-10T06:25:51;11.07;;;5.90;;
19255;SDS011;9762;52.490;13.410;2023-06-10T06:28:17;12.57;;;5.70;;
19255;SDS011;9762;52.490;13.410;2023-06-10T06:30:44;9.17;;;6.13;;
19255;SDS011;9762;52.490;13.410;2023-06-10T06:33:09;6.13;;;5.53;;
19255;SDS011;9762;52.490;13.410;2023-06-10T06:35:35;6.50;;;5.90;;
19255;SDS011;9762;52.490;13.410;2023-06-10T06:38:03;17.03;;;6.17;;
19255;SDS011;9762;52.490;13.410;2023-06-10T06:40:29;8.70;;;5.90;;
19255;SDS011;9762;52.490;13.410;2023-06-10T06:42:55;9.53;;;6.30;;
19255;SDS011;9762;52.490;13.410;2023-06-10T06:45:20;9.03;;;6.03;;
19255;SDS011;9762;52.490;13.410;2023-06-10T06:47:46;12.77;;;6.20;;
19255;SDS011;9762;52.490;13.410;2023-06-10T06:50:12;9.83;;;5.93;;
19255;SDS011;9762;52.490;13.410;2023-06-10T06:52:37;7.20;;;5.57;;
19255;SDS011;9762;52.490;13.410;2023-06-10T06:55:03;11.70;;;5.70;;
19255;SDS011;9762;52.490;13.410;2023-06-10T06:57:29;7.40;;;6.00;;
19255;SDS011;9762;52.490;13.410;2023-06-10T06:59:55;10.27;;;5.97;;
19255;SDS011;9762;52.490;13.410;2023-06-10T07:02:20;7.77;;;5.87;;
19255;SDS011;9762;52.490;13.410;2023-06-10T07:04:46;10.50;;;6.10;;
19255;SDS011;9762;52.490;13.410;2023-06-10T07:07:14;8.60;;;5.17;;
19255;SDS011;9762;52.490;13.410;2023-06-10T07:09:40;10.87;;;6.17;;
19255;SDS011;9762;52.490;13.410;2023-06-10T07:12:06;13.10;;;6.13;;
19255;SDS011;9762;52.490;13.410;2023-06-10T07:14:32;13.17;;;6.57;;
19255;SDS011;9762;52.490;13.410;2023-06-10T07:16:58;10.40;;;6.33;;
19255;SDS011;9762;52.490;13.410;2023-06-10T07:19:25;17.90;;;6.50;;
19255;SDS011;9762;52.490;13.410;2023-06-10T07:21:50;9.90;;;5.87;;
19255;SDS011;9762;52.490;13.410;2023-06-10T07:24:16;9.00;;;5.93;;
19255;SDS011;9762;52.490;13.410;2023-06-10T07:26:42;11.40;;;6.83;;
19255;SDS011;9762;52.490;13.410;2023-06-10T07:29:07;14.43;;;6.40;;
19255;SDS011;9762;52.490;13.410;2023-06-10T07:31:33;10.43;;;6.47;;
19255;SDS011;9762;52.490;13.410;2023-06-10T07:33:59;13.13;;;7.23;;
19255;SDS011;9762;52.490;13.410;2023-06-10T07:36:25;12.73;;;7.43;;
19255;SDS011;9762;52.490;13.410;2023-06-10T07:38:53;8.77;;;7.20;;
19255;SDS011;9762;52.490;13.410;2023-06-10T07:41:19;9.80;;;7.03;;
19255;SDS011;9762;52.490;13.410;2023-06-10T07:43:45;13.40;;;7.07;;
19255;SDS011;9762;52.490;13.410;2023-06-10T07:46:11;9.47;;;6.53;;
19255;SDS011;9762;52.490;13.410;2023-06-10T07:48:36;9.60;;;6.90;;
19255;SDS011;9762;52.490;13.410;2023-06-10T07:51:02;13.67;;;6.40;;
19255;SDS011;9762;52.490;13.410;2023-06-10T07:53:28;10.83;;;6.47;;
19255;SDS011;9762;52.490;13.410;2023-06-10T07:55:53;10.63;;;6.60;;
19255;SDS011;9762;52.490;13.410;2023-06-10T07:58:19;11.67;;;6.70;;
19255;SDS011;9762;52.490;13.410;2023-06-10T08:00:44;9.73;;;5.93;;
19255;SDS011;9762;52.490;13.410;2023-06-10T08:03:11;9.70;;;6.57;;
19255;SDS011;9762;52.490;13.410;2023-06-10T08:05:36;9.77;;;8.13;;
19255;SDS011;9762;52.490;13.410;2023-06-10T08:08:04;17.40;;;8.87;;
19255;SDS011;9762;52.490;13.410;2023-06-10T08:10:30;7.53;;;6.40;;
19255;SDS011;9762;52.490;13.410;2023-06-10T08:12:56;9.30;;;6.10;;
19255;SDS011;9762;52.490;13.410;2023-06-10T08:15:22;11.20;;;6.47;;
19255;SDS011;9762;52.490;13.410;2023-06-10T08:17:47;8.00;;;6.00;;
19255;SDS011;9762;52.490;13.410;2023-06-10T08:20:13;10.30;;;6.77;;
19255;SDS011;9762;52.490;13.410;2023-06-10T08:22:39;7.32;;;5.53;;
19255;SDS011;9762;52.490;13.410;2023-06-10T08:25:04;7.10;;;6.22;;
19255;SDS011;9762;52.490;13.410;2023-06-10T08:27:30;10.45;;;5.88;;
19255;SDS011;9762;52.490;13.410;2023-06-10T08:29:56;9.55;;;6.35;;
19255;SDS011;9762;52.490;13.410;2023-06-10T08:32:21;19.08;;;6.60;;
19255;SDS011;9762;52.490;13.410;2023-06-10T08:34:47;9.18;;;6.85;;
19255;SDS011;9762;52.490;13.410;2023-06-10T08:37:13;7.55;;;6.35;;
19255;SDS011;9762;52.490;13.410;2023-06-10T08:39:38;9.27;;;6.25;;
19255;SDS011;9762;52.490;13.410;2023-06-10T08:44:47;9.00;;;5.93;;
19255;SDS011;9762;52.490;13.410;2023-06-10T08:47:20;11.73;;;6.45;;
19255;SDS011;9762;52.490;13.410;2023-06-10T08:49:48;11.05;;;6.78;;
19255;SDS011;9762;52.490;13.410;2023-06-10T08:52:15;12.68;;;6.05;;
19255;SDS011;9762;52.490;13.410;2023-06-10T08:54:52;6.82;;;6.13;;
19255;SDS011;9762;52.490;13.410;2023-06-10T08:57:21;13.63;;;6.97;;
19255;SDS011;9762;52.490;13.410;2023-06-10T08:59:48;13.02;;;6.43;;
19255;SDS011;9762;52.490;13.410;2023-06-10T09:02:14;8.27;;;6.18;;
19255;SDS011;9762;52.490;13.410;2023-06-10T09:04:42;18.77;;;7.10;;
19255;SDS011;9762;52.490;13.410;2023-06-10T09:07:09;9.73;;;6.47;;
19255;SDS011;9762;52.490;13.410;2023-06-10T09:09:35;8.73;;;6.15;;
19255;SDS011;9762;52.490;13.410;2023-06-10T09:12:02;12.90;;;6.65;;
19255;SDS011;9762;52.490;13.410;2023-06-10T09:14:28;9.25;;;6.50;;
19255;SDS011;9762;52.490;13.410;2023-06-10T09:16:54;7.45;;;5.97;;
19255;SDS011;9762;52.490;13.410;2023-06-10T09:19:23;10.13;;;6.53;;
19255;SDS011;9762;52.490;13.410;2023-06-10T09:21:50;7.80;;;5.93;;
19255;SDS011;9762;52.490;13.410;2023-06-10T09:24:15;7.38;;;6.65;;
19255;SDS011;9762;52.490;13.410;2023-06-10T09:26:42;9.23;;;7.07;;
19255;SDS011;9762;52.490;13.410;2023-06-10T09:29:09;8.20;;;6.28;;
19255;SDS011;9762;52.490;13.410;2023-06-10T09:31:37;9.98;;;6.45;;
19255;SDS011;9762;52.490;13.410;2023-06-10T09:34:24;10.15;;;6.78;;
19255;SDS011;9762;52.490;13.410;2023-06-10T09:36:50;17.83;;;6.72;;
19255;SDS011;9762;52.490;13.410;2023-06-10T09:39:16;16.27;;;6.10;;
19255;SDS011;9762;52.490;13.410;2023-06-10T09:41:43;10.15;;;6.30;;
19255;SDS011;9762;52.490;13.410;2023-06-10T09:44:13;10.45;;;6.07;;
19255;SDS011;9762;52.490;13.410;2023-06-10T09:46:40;11.90;;;6.50;;
19255;SDS011;9762;52.490;13.410;2023-06-10T09:49:06;13.45;;;6.22;;
19255;SDS011;9762;52.490;13.410;2023-06-10T09:51:31;11.15;;;6.00;;
19255;SDS011;9762;52.490;13.410;2023-06-10T09:53:57;11.20;;;6.53;;
19255;SDS011;9762;52.490;13.410;2023-06-10T09:56:34;12.73;;;5.95;;
19255;SDS011;9762;52.490;13.410;2023-06-10T09:59:01;8.88;;;5.53;;
19255;SDS011;9762;52.490;13.410;2023-06-10T10:01:27;6.88;;;6.20;;
19255;SDS011;9762;52.490;13.410;2023-06-10T10:03:53;11.38;;;5.72;;
19255;SDS011;9762;52.490;13.410;2023-06-10T10:06:19;14.40;;;12.73;;
19255;SDS011;9762;52.490;13.410;2023-06-10T10:08:46;9.50;;;6.63;;
19255;SDS011;9762;52.490;13.410;2023-06-10T10:11:14;12.73;;;6.20;;
19255;SDS011;9762;52.490;13.410;2023-06-10T10:13:42;7.75;;;5.93;;
19255;SDS011;9762;52.490;13.410;2023-06-10T10:16:17;7.97;;;6.57;;
19255;SDS011;9762;52.490;13.410;2023-06-10T10:18:59;9.55;;;6.15;;
19255;SDS011;9762;52.490;13.410;2023-06-10T10:21:31;14.20;;;6.40;;
19255;SDS011;9762;52.490;13.410;2023-06-10T10:24:23;9.88;;;6.68;;
19255;SDS011;9762;52.490;13.410;2023-06-10T10:26:57;9.93;;;7.13;;
19255;SDS011;9762;52.490;13.410;2023-06-10T10:29:30;10.93;;;6.82;;
19255;SDS011;9762;52.490;13.410;2023-06-10T10:31:58;9.57;;;6.90;;
19255;SDS011;9762;52.490;13.410;2023-06-10T10:37:36;12.00;;;7.15;;
19255;SDS011;9762;52.490;13.410;2023-06-10T10:40:02;5.57;;;5.18;;
19255;SDS011;9762;52.490;13.410;2023-06-10T10:42:28;6.20;;;5.55;;
19255;SDS011;9762;52.490;13.410;2023-06-10T10:44:55;11.02;;;6.00;;
19255;SDS011;9762;52.490;13.410;2023-06-10T10:47:21;10.70;;;5.30;;
19255;SDS011;9762;52.490;13.410;2023-06-10T10:49:48;5.43;;;4.93;;
19255;SDS011;9762;52.490;13.410;2023-06-10T10:52:18;8.70;;;5.40;;
19255;SDS011;9762;52.490;13.410;2023-06-10T10:54:45;6.40;;;4.72;;
19255;SDS011;9762;52.490;13.410;2023-06-10T10:57:12;27.35;;;9.40;;
19255;SDS011;9762;52.490;13.410;2023-06-10T10:59:42;40.80;;;12.15;;
19255;SDS011;9762;52.490;13.410;2023-06-10T11:02:08;9.05;;;4.03;;
19255;SDS011;9762;52.490;13.410;2023-06-10T11:04:34;8.93;;;5.25;;
19255;SDS011;9762;52.490;13.410;2023-06-10T11:07:05;10.32;;;4.93;;
19255;SDS011;9762;52.490;13.410;2023-06-10T11:09:32;7.47;;;4.75;;
19255;SDS011;9762;52.490;13.410;2023-06-10T11:11:58;8.95;;;4.55;;
19255;SDS011;9762;52.490;13.410;2023-06-10T11:14:28;8.27;;;4.45;;
19255;SDS011;9762;52.490;13.410;2023-06-10T11:16:56;12.48;;;5.72;;
19255;SDS011;9762;52.490;13.410;2023-06-10T11:19:35;15.50;;;5.97;;
19255;SDS011;9762;52.490;13.410;2023-06-10T11:22:05;6.68;;;4.13;;
19255;SDS011;9762;52.490;13.410;2023-06-10T11:24:31;8.10;;;4.22;;
19255;SDS011;9762;52.490;13.410;2023-06-10T11:32:45;11.23;;;5.18;;
19255;SDS011;9762;52.490;13.410;2023-06-10T11:35:16;13.55;;;4.22;;
19255;SDS011;9762;52.490;13.410;2023-06-10T11:37:43;4.82;;;4.30;;
19255;SDS011;9762;52.490;13.410;2023-06-10T11:40:09;6.30;;;4.13;;
19255;SDS011;9762;52.490;13.410;2023-06-10T11:42:40;4.57;;;4.28;;
19255;SDS011;9762;52.490;13.410;2023-06-10T11:45:07;4.93;;;4.40;;
19255;SDS011;9762;52.490;13.410;2023-06-10T11:47:33;5.15;;;4.78;;
19255;SDS011;9762;52.490;13.410;2023-06-10T11:49:59;6.30;;;4.75;;
19255;SDS011;9762;52.490;13.410;2023-06-10T11:52:28;5.72;;;4.30;;
19255;SDS011;9762;52.490;13.410;2023-06-10T11:54:57;5.68;;;4.18;;
19255;SDS011;9762;52.490;13.410;2023-06-10T11:57:23;6.85;;;5.30;;
19255;SDS011;9762;52.490;13.410;2023-06-10T11:59:48;6.30;;;4.40;;
19255;SDS011;9762;52.490;13.410;2023-06-10T12:02:15;6.05;;;4.95;;
19255;SDS011;9762;52.490;13.410;2023-06-10T12:04:41;5.32;;;4.40;;
19255;SDS011;9762;52.490;13.410;2023-06-10T12:07:07;4.60;;;4.30;;
19255;SDS011;9762;52.490;13.410;2023-06-10T12:09:32;6.13;;;4.55;;
19255;SDS011;9762;52.490;13.410;2023-06-10T12:12:02;5.53;;;4.63;;
19255;SDS011;9762;52.490;13.410;2023-06-10T12:17:34;5.82;;;3.70;;
19255;SDS011;9762;52.490;13.410;2023-06-10T12:20:05;6.50;;;3.85;;
19255;SDS011;9762;52.490;13.410;2023-06-10T12:22:39;10.48;;;4.68;;
19255;SDS011;9762;52.490;13.410;2023-06-10T12:25:06;4.93;;;4.40;;
19255;SDS011;9762;52.490;13.410;2023-06-10T12:27:33;4.38;;;4.05;;
19255;SDS011;9762;52.490;13.410;2023-06-10T12:30:00;4.63;;;4.35;;
19255;SDS011;9762;52.490;13.410;2023-06-10T12:32:35;8.77;;;4.30;;
19255;SDS011;9762;52.490;13.410;2023-06-10T12:35:08;5.47;;;5.10;;
19255;SDS011;9762;52.490;13.410;2023-06-10T12:37:35;11.38;;;4.80;;
19255;SDS011;9762;52.490;13.410;2023-06-10T12:40:02;8.30;;;4.60;;
19255;SDS011;9762;52.490;13.410;2023-06-10T12:42:29;5.15;;;4.75;;
19255;SDS011;9762;52.490;13.410;2023-06-10T12:44:56;6.57;;;5.25;;
19255;SDS011;9762;52.490;13.410;2023-06-10T12:49:59;5.85;;;5.35;;
19255;SDS011;9762;52.490;13.410;2023-06-10T12:52:26;7.03;;;5.68;;
19255;SDS011;9762;52.490;13.410;2023-06-10T12:54:52;11.38;;;5.53;;
19255;SDS011;9762;52.490;13.410;2023-06-10T12:57:19;7.53;;;5.57;;
19255;SDS011;9762;52.490;13.410;2023-06-10T12:59:45;5.65;;;5.20;;
19255;SDS011;9762;52.490;13.410;2023-06-10T13:02:15;6.32;;;5.93;;
19255;SDS011;9762;52.490;13.410;2023-06-10T13:04:44;13.00;;;6.57;;
19255;SDS011;9762;52.490;13.410;2023-06-10T13:07:10;13.55;;;6.18;;
19255;SDS011;9762;52.490;13.410;2023-06-10T13:09:36;10.02;;;5.72;;
19255;SDS011;9762;52.490;13.410;2023-06-10T13:12:02;6.57;;;6.10;;
19255;SDS011;9762;52.490;13.410;2023-06-10T13:14:28;9.23;;;5.90;;
19255;SDS011;9762;52.490;13.410;2023-06-10T13:16:54;9.32;;;6.60;;
19255;SDS011;9762;52.490;13.410;2023-06-10T13:19:20;10.10;;;6.40;;
19255;SDS011;9762;52.490;13.410;2023-06-10T13:21:47;6.57;;;6.00;;
19255;SDS011;9762;52.490;13.410;2023-06-10T13:24:16;7.38;;;6.20;;
19255;SDS011;9762;52.490;13.410;2023-06-10T13:26:42;8.35;;;5.82;;
19255;SDS011;9762;52.490;13.410;2023-06-10T13:29:08;8.65;;;6.75;;
19255;SDS011;9762;52.490;13.410;2023-06-10T13:31:38;6.60;;;6.00;;
19255;SDS011;9762;52.490;13.410;2023-06-10T13:34:04;7.60;;;5.90;;
19255;SDS011;9762;52.490;13.410;2023-06-10T13:36:31;8.13;;;5.60;;
19255;SDS011;9762;52.490;13.410;2023-06-10T13:38:57;6.95;;;5.90;;
19255;SDS011;9762;52.490;13.410;2023-06-10T13:41:22;5.85;;;5.35;;
19255;SDS011;9762;52.490;13.410;2023-06-10T13:43:48;7.05;;;5.80;;
19255;SDS011;9762;52.490;13.410;2023-06-10T13:46:14;6.25;;;5.72;;
19255;SDS011;9762;52.490;13.410;2023-06-10T13:48:39;7.65;;;6.32;;
19255;SDS011;9762;52.490;13.410;2023-06-10T13:51:05;9.05;;;6.70;;
19255;SDS011;9762;52.490;13.410;2023-06-10T13:53:31;6.38;;;5.78;;
19255;SDS011;9762;52.490;13.410;2023-06-10T13:55:57;8.10;;;6.57;;
19255;SDS011;9762;52.490;13.410;2023-06-10T13:58:23;7.22;;;5.72;;
19255;SDS011;9762;52.490;13.410;2023-06-10T14:00:48;15.15;;;6.18;;
19255;SDS011;9762;52.490;13.410;2023-06-10T14:03:14;6.68;;;6.07;;
19255;SDS011;9762;52.490;13.410;2023-06-10T14:05:40;6.45;;;5.68;;
19255;SDS011;9762;52.490;13.410;2023-06-10T14:08:05;6.43;;;5.82;;
19255;SDS011;9762;52.490;13.410;2023-06-10T14:10:31;6.82;;;5.68;;
19255;SDS011;9762;52.490;13.410;2023-06-10T14:12:57;6.57;;;5.97;;
19255;SDS011;9762;52.490;13.410;2023-06-10T14:15:22;8.13;;;5.50;;
19255;SDS011;9762;52.490;13.410;2023-06-10T14:17:48;8.55;;;5.45;;
19255;SDS011;9762;52.490;13.410;2023-06-10T14:20:13;13.50;;;6.00;;
19255;SDS011;9762;52.490;13.410;2023-06-10T14:22:39;5.55;;;5.03;;
19255;SDS011;9762;52.490;13.410;2023-06-10T14:25:05;5.40;;;5.10;;
19255;SDS011;9762;52.490;13.410;2023-06-10T14:27:31;5.60;;;5.10;;
19255;SDS011;9762;52.490;13.410;2023-06-10T14:29:57;5.43;;;5.03;;
19255;SDS011;9762;52.490;13.410;2023-06-10T14:32:22;8.40;;;5.18;;
19255;SDS011;9762;52.490;13.410;2023-06-10T14:34:48;6.75;;;4.85;;
19255;SDS011;9762;52.490;13.410;2023-06-10T14:37:13;5.60;;;5.20;;
19255;SDS011;9762;52.490;13.410;2023-06-10T14:39:39;5.40;;;4.95;;
19255;SDS011;9762;52.490;13.410;2023-06-10T14:42:05;8.55;;;5.00;;
19255;SDS011;9762;52.490;13.410;2023-06-10T14:44:31;8.02;;;5.03;;
19255;SDS011;9762;52.490;13.410;2023-06-10T14:46:56;5.43;;;5.03;;
19255;SDS011;9762;52.490;13.410;2023-06-10T14:49:22;7.97;;;4.82;;
19255;SDS011;9762;52.490;13.410;2023-06-10T14:51:48;6.72;;;5.18;;
19255;SDS011;9762;52.490;13.410;2023-06-10T14:54:15;10.95;;;4.95;;
19255;SDS011;9762;52.490;13.410;2023-06-10T14:56:40;8.43;;;5.18;;
19255;SDS011;9762;52.490;13.410;2023-06-10T14:59:06;13.48;;;5.82;;
19255;SDS011;9762;52.490;13.410;2023-06-10T15:01:31;5.97;;;5.25;;
19255;SDS011;9762;52.490;13.410;2023-06-10T15:03:57;7.60;;;5.47;;
19255;SDS011;9762;52.490;13.410;2023-06-10T15:06:23;11.93;;;5.20;;